sensor_id;sensor_type;location;lat;lon;timestamp;pressure;altitude;pressure_sealevel;temperature;humidity
3464;BME280;3551;41.578;24.706;2023-02-02T11:17:45;90998.97;;;4.70;55.85
3464;BME280;3551;41.578;24.706;2023-02-02T12:03:36;90983.09;;;5.03;54.91
3464;BME280;3551;41.578;24.706;2023-02-02T12:06:19;90979.19;;;4.93;57.35
3464;BME280;3551;41.578;24.706;2023-02-02T12:08:52;90987.13;;;5.27;57.63
3464;BME280;3551;41.578;24.706;2023-02-02T12:11:36;90961.63;;;4.82;57.49
3464;BME280;3551;41.578;24.706;2023-02-02T12:14:28;90956.19;;;5.01;56.76
3464;BME280;3551;41.578;24.706;2023-02-02T12:17:30;90966.41;;;4.99;57.24
3464;BME280;3551;41.578;24.706;2023-02-02T12:39:33;90966.75;;;5.31;56.71
3464;BME280;3551;41.578;24.706;2023-02-02T13:09:23;90917.28;;;4.42;61.85
3464;BME280;3551;41.578;24.706;2023-02-02T13:12:38;90952.38;;;4.35;64.83
3464;BME280;3551;41.578;24.706;2023-02-02T13:18:52;91001.09;;;4.05;65.02
3464;BME280;3551;41.578;24.706;2023-02-02T13:24:26;91015.09;;;4.58;62.88
3464;BME280;3551;41.578;24.706;2023-02-02T13:27:00;90972.44;;;4.96;60.52
3464;BME280;3551;41.578;24.706;2023-02-02T13:29:36;90977.44;;;5.04;58.51
3464;BME280;3551;41.578;24.706;2023-02-02T13:32:19;90954.59;;;4.93;61.25
3464;BME280;3551;41.578;24.706;2023-02-02T13:34:55;90955.13;;;5.09;61.69
3464;BME280;3551;41.578;24.706;2023-02-02T13:37:29;90916.16;;;4.73;62.82
3464;BME280;3551;41.578;24.706;2023-02-02T13:40:08;90931.22;;;4.69;63.46
3464;BME280;3551;41.578;24.706;2023-02-02T13:42:58;90933.28;;;4.52;61.84
3464;BME280;3551;41.578;24.706;2023-02-02T13:45:51;90900.78;;;4.52;63.00
3464;BME280;3551;41.578;24.706;2023-02-02T13:48:32;90918.19;;;4.86;59.81
3464;BME280;3551;41.578;24.706;2023-02-02T13:58:29;90941.34;;;4.60;62.59
3464;BME280;3551;41.578;24.706;2023-02-02T14:01:21;90903.22;;;4.34;63.13
3464;BME280;3551;41.578;24.706;2023-02-02T14:03:57;90917.22;;;4.09;63.42
3464;BME280;3551;41.578;24.706;2023-02-02T14:06:56;90944.19;;;3.91;64.16
3464;BME280;3551;41.578;24.706;2023-02-02T14:09:30;90920.91;;;4.01;62.90
3464;BME280;3551;41.578;24.706;2023-02-02T14:12:26;90989.16;;;4.14;61.47
3464;BME280;3551;41.578;24.706;2023-02-02T14:18:54;90964.84;;;3.82;62.87
3464;BME280;3551;41.578;24.706;2023-02-02T14:22:04;90956.69;;;4.17;60.43
3464;BME280;3551;41.578;24.706;2023-02-02T14:24:55;90950.06;;;4.04;61.95
3464;BME280;3551;41.578;24.706;2023-02-02T14:34:34;90956.91;;;4.09;65.83
3464;BME280;3551;41.578;24.706;2023-02-02T14:43:24;90967.66;;;3.93;65.81
3464;BME280;3551;41.578;24.706;2023-02-02T14:46:40;90950.56;;;4.13;65.10
3464;BME280;3551;41.578;24.706;2023-02-02T14:49:18;90939.88;;;3.80;66.85
3464;BME280;3551;41.578;24.706;2023-02-02T14:52:20;90932.25;;;3.75;65.03
3464;BME280;3551;41.578;24.706;2023-02-02T14:55:17;90893.94;;;3.65;67.33
3464;BME280;3551;41.578;24.706;2023-02-02T14:57:54;90926.25;;;3.78;66.66
3464;BME280;3551;41.578;24.706;2023-02-02T15:00:39;90921.00;;;3.55;68.76
3464;BME280;3551;41.578;24.706;2023-02-02T15:03:32;90898.38;;;3.58;67.54
3464;BME280;3551;41.578;24.706;2023-02-02T15:06:11;90905.69;;;3.68;66.06
3464;BME280;3551;41.578;24.706;2023-02-02T15:12:19;90934.44;;;3.95;66.46
3464;BME280;3551;41.578;24.706;2023-02-02T15:15:39;90885.81;;;3.77;64.58
3464;BME280;3551;41.578;24.706;2023-02-02T15:18:25;90954.06;;;3.94;64.27
3464;BME280;3551;41.578;24.706;2023-02-02T15:21:04;90909.59;;;4.04;64.26
3464;BME280;3551;41.578;24.706;2023-02-02T15:24:49;90946.09;;;4.17;64.70
3464;BME280;3551;41.578;24.706;2023-02-02T15:28:03;90932.34;;;4.08;65.39
3464;BME280;3551;41.578;24.706;2023-02-02T15:30:52;90951.16;;;4.03;65.48
3464;BME280;3551;41.578;24.706;2023-02-02T15:33:28;90946.31;;;3.82;66.22
3464;BME280;3551;41.578;24.706;2023-02-02T15:36:38;90928.19;;;3.81;67.10
3464;BME280;3551;41.578;24.706;2023-02-02T15:39:58;90964.50;;;3.84;67.38
3464;BME280;3551;41.578;24.706;2023-02-02T15:43:05;90981.91;;;3.85;68.34
3464;BME280;3551;41.578;24.706;2023-02-02T15:46:05;90959.56;;;3.60;69.11
3464;BME280;3551;41.578;24.706;2023-02-02T16:40:59;91034.09;;;2.66;81.10
3464;BME280;3551;41.578;24.706;2023-02-02T16:43:48;91021.00;;;2.35;80.64
3464;BME280;3551;41.578;24.706;2023-02-02T16:46:51;91006.88;;;2.62;81.34
3464;BME280;3551;41.578;24.706;2023-02-02T16:49:48;91019.09;;;2.51;81.94
3464;BME280;3551;41.578;24.706;2023-02-02T16:52:26;91040.41;;;2.61;81.88
3464;BME280;3551;41.578;24.706;2023-02-02T16:55:14;91066.78;;;2.77;81.64
3464;BME280;3551;41.578;24.706;2023-02-02T16:58:49;91022.66;;;2.43;81.47
3464;BME280;3551;41.578;24.706;2023-02-02T17:05:24;91029.50;;;2.28;84.24
3464;BME280;3551;41.578;24.706;2023-02-02T17:08:32;91090.47;;;2.58;84.95
3464;BME280;3551;41.578;24.706;2023-02-02T17:12:04;91084.53;;;2.45;86.40
3464;BME280;3551;41.578;24.706;2023-02-02T17:26:15;91059.66;;;2.11;86.84
3464;BME280;3551;41.578;24.706;2023-02-02T17:29:12;91058.47;;;2.24;88.04
3464;BME280;3551;41.578;24.706;2023-02-02T17:32:13;91072.44;;;2.09;87.43
3464;BME280;3551;41.578;24.706;2023-02-02T20:38:27;91220.22;;;2.13;100.00
3464;BME280;3551;41.578;24.706;2023-02-02T20:41:57;91187.19;;;2.19;100.00
3464;BME280;3551;41.578;24.706;2023-02-02T20:45:53;91180.22;;;2.26;100.00
